sensor_id;sensor_type;location;lat;lon;timestamp;pressure;altitude;pressure_sealevel;temperature;humidity
54407;BME280;40313;50.308;30.374;2023-01-05T00:01:21;99493.28;;;-0.87;100.00
54407;BME280;40313;50.308;30.374;2023-01-05T00:03:48;99488.97;;;-0.84;100.00
54407;BME280;40313;50.308;30.374;2023-01-05T00:06:16;99480.41;;;-0.82;100.00
54407;BME280;40313;50.308;30.374;2023-01-05T00:08:43;99474.41;;;-0.79;100.00
54407;BME280;40313;50.308;30.374;2023-01-05T00:11:11;99472.66;;;-0.77;100.00
54407;BME280;40313;50.308;30.374;2023-01-05T00:13:56;99458.13;;;-0.74;100.00
54407;BME280;40313;50.308;30.374;2023-01-05T00:16:40;99458.06;;;-0.71;100.00
54407;BME280;40313;50.308;30.374;2023-01-05T00:19:25;99443.53;;;-0.67;100.00
54407;BME280;40313;50.308;30.374;2023-01-05T00:22:13;99437.47;;;-0.64;100.00
54407;BME280;40313;50.308;30.374;2023-01-05T00:24:56;99443.47;;;-0.64;100.00
54407;BME280;40313;50.308;30.374;2023-01-05T00:27:22;99431.53;;;-0.65;100.00
54407;BME280;40313;50.308;30.374;2023-01-05T00:29:49;99424.69;;;-0.63;100.00
54407;BME280;40313;50.308;30.374;2023-01-05T00:32:15;99433.19;;;-0.61;100.00
54407;BME280;40313;50.308;30.374;2023-01-05T00:34:43;99411.81;;;-0.60;100.00
54407;BME280;40313;50.308;30.374;2023-01-05T00:37:10;99400.72;;;-0.62;100.00
54407;BME280;40313;50.308;30.374;2023-01-05T00:39:36;99388.75;;;-0.60;100.00
54407;BME280;40313;50.308;30.374;2023-01-05T00:42:03;99379.31;;;-0.58;100.00
54407;BME280;40313;50.308;30.374;2023-01-05T00:44:29;99364.78;;;-0.56;100.00
54407;BME280;40313;50.308;30.374;2023-01-05T00:46:56;99351.91;;;-0.51;100.00
54407;BME280;40313;50.308;30.374;2023-01-05T00:49:22;99350.16;;;-0.49;100.00
54407;BME280;40313;50.308;30.374;2023-01-05T00:51:50;99345.00;;;-0.47;100.00
54407;BME280;40313;50.308;30.374;2023-01-05T00:54:17;99351.78;;;-0.45;100.00
54407;BME280;40313;50.308;30.374;2023-01-05T00:56:45;99348.34;;;-0.42;100.00
54407;BME280;40313;50.308;30.374;2023-01-05T00:59:13;99333.78;;;-0.40;100.00
54407;BME280;40313;50.308;30.374;2023-01-05T01:01:39;99309.88;;;-0.41;100.00
54407;BME280;40313;50.308;30.374;2023-01-05T01:04:06;99303.00;;;-0.39;100.00
54407;BME280;40313;50.308;30.374;2023-01-05T01:06:32;99296.13;;;-0.35;100.00
54407;BME280;40313;50.308;30.374;2023-01-05T01:09:00;99301.25;;;-0.35;100.00
54407;BME280;40313;50.308;30.374;2023-01-05T01:11:27;99290.09;;;-0.32;100.00
54407;BME280;40313;50.308;30.374;2023-01-05T01:13:53;99288.34;;;-0.30;100.00
54407;BME280;40313;50.308;30.374;2023-01-05T01:16:20;99277.19;;;-0.28;100.00
54407;BME280;40313;50.308;30.374;2023-01-05T01:18:48;99284.00;;;-0.27;100.00
54407;BME280;40313;50.308;30.374;2023-01-05T01:21:15;99279.72;;;-0.26;100.00
54407;BME280;40313;50.308;30.374;2023-01-05T01:23:42;99271.13;;;-0.24;100.00
54407;BME280;40313;50.308;30.374;2023-01-05T01:26:11;99262.63;;;-0.24;100.00
54407;BME280;40313;50.308;30.374;2023-01-05T01:28:38;99255.75;;;-0.24;100.00
54407;BME280;40313;50.308;30.374;2023-01-05T01:31:05;99251.50;;;-0.25;100.00
54407;BME280;40313;50.308;30.374;2023-01-05T01:33:32;99225.88;;;-0.25;100.00
54407;BME280;40313;50.308;30.374;2023-01-05T01:36:02;99222.41;;;-0.22;100.00
54407;BME280;40313;50.308;30.374;2023-01-05T01:38:29;99212.94;;;-0.20;100.00
54407;BME280;40313;50.308;30.374;2023-01-05T01:40:56;99207.81;;;-0.20;100.00
54407;BME280;40313;50.308;30.374;2023-01-05T01:43:40;99196.66;;;-0.18;100.00
54407;BME280;40313;50.308;30.374;2023-01-05T01:46:07;99190.66;;;-0.15;100.00
54407;BME280;40313;50.308;30.374;2023-01-05T01:48:35;99178.69;;;-0.16;100.00
54407;BME280;40313;50.308;30.374;2023-01-05T01:51:04;99171.84;;;-0.14;100.00
54407;BME280;40313;50.308;30.374;2023-01-05T01:53:37;99164.97;;;-0.13;100.00
54407;BME280;40313;50.308;30.374;2023-01-05T01:56:08;99144.44;;;-0.12;100.00
54407;BME280;40313;50.308;30.374;2023-01-05T01:58:36;99137.53;;;-0.08;100.00
54407;BME280;40313;50.308;30.374;2023-01-05T02:01:04;99126.44;;;-0.10;100.00
54407;BME280;40313;50.308;30.374;2023-01-05T02:03:31;99119.59;;;-0.08;100.00
54407;BME280;40313;50.308;30.374;2023-01-05T02:05:58;99117.03;;;-0.08;100.00
54407;BME280;40313;50.308;30.374;2023-01-05T02:08:25;99103.31;;;-0.07;100.00
54407;BME280;40313;50.308;30.374;2023-01-05T02:11:04;99086.28;;;-0.10;100.00
54407;BME280;40313;50.308;30.374;2023-01-05T02:13:45;99087.06;;;-0.06;100.00
54407;BME280;40313;50.308;30.374;2023-01-05T02:16:23;99081.13;;;-0.08;100.00
54407;BME280;40313;50.308;30.374;2023-01-05T02:19:08;99069.97;;;-0.07;100.00
54407;BME280;40313;50.308;30.374;2023-01-05T02:21:48;99068.28;;;-0.07;100.00
54407;BME280;40313;50.308;30.374;2023-01-05T02:24:41;99072.47;;;-0.03;100.00
54407;BME280;40313;50.308;30.374;2023-01-05T02:27:37;99054.44;;;0.01;100.00
54407;BME280;40313;50.308;30.374;2023-01-05T02:33:16;99058.69;;;0.02;100.00
54407;BME280;40313;50.308;30.374;2023-01-05T02:35:49;99046.66;;;0.04;100.00
54407;BME280;40313;50.308;30.374;2023-01-05T02:38:21;99043.19;;;0.06;100.00
54407;BME280;40313;50.308;30.374;2023-01-05T02:40:55;99047.41;;;0.09;100.00
54407;BME280;40313;50.308;30.374;2023-01-05T02:43:23;99050.78;;;0.11;100.00
54407;BME280;40313;50.308;30.374;2023-01-05T02:45:49;99046.47;;;0.13;100.00
54407;BME280;40313;50.308;30.374;2023-01-05T02:48:17;99042.19;;;0.13;100.00
54407;BME280;40313;50.308;30.374;2023-01-05T02:50:49;99033.53;;;0.17;100.00
54407;BME280;40313;50.308;30.374;2023-01-05T02:53:20;99024.94;;;0.19;100.00
54407;BME280;40313;50.308;30.374;2023-01-05T02:55:50;99017.25;;;0.19;100.00
54407;BME280;40313;50.308;30.374;2023-01-05T02:58:23;99011.16;;;0.23;100.00
54407;BME280;40313;50.308;30.374;2023-01-05T03:00:54;99012.81;;;0.25;100.00
54407;BME280;40313;50.308;30.374;2023-01-05T03:03:28;98999.16;;;0.25;100.00
54407;BME280;40313;50.308;30.374;2023-01-05T03:06:00;98990.50;;;0.29;100.00
54407;BME280;40313;50.308;30.374;2023-01-05T03:08:28;98982.78;;;0.30;100.00
54407;BME280;40313;50.308;30.374;2023-01-05T03:11:02;98976.72;;;0.33;100.00
54407;BME280;40313;50.308;30.374;2023-01-05T03:13:51;98965.56;;;0.34;100.00
54407;BME280;40313;50.308;30.374;2023-01-05T03:16:23;98960.38;;;0.36;100.00
54407;BME280;40313;50.308;30.374;2023-01-05T03:18:54;98956.94;;;0.37;100.00
54407;BME280;40313;50.308;30.374;2023-01-05T03:21:40;98950.91;;;0.39;100.00
54407;BME280;40313;50.308;30.374;2023-01-05T03:24:24;98938.13;;;0.38;100.00
54407;BME280;40313;50.308;30.374;2023-01-05T03:27:08;98936.38;;;0.38;100.00
54407;BME280;40313;50.308;30.374;2023-01-05T03:29:53;98927.97;;;0.33;100.00
54407;BME280;40313;50.308;30.374;2023-01-05T03:32:43;98913.47;;;0.32;100.00
54407;BME280;40313;50.308;30.374;2023-01-05T03:35:31;98913.53;;;0.29;100.00
54407;BME280;40313;50.308;30.374;2023-01-05T03:38:03;98908.41;;;0.29;100.00
54407;BME280;40313;50.308;30.374;2023-01-05T03:40:34;98905.03;;;0.27;100.00
54407;BME280;40313;50.308;30.374;2023-01-05T03:43:02;98891.50;;;0.22;100.00
54407;BME280;40313;50.308;30.374;2023-01-05T03:45:33;98890.53;;;0.26;100.00
54407;BME280;40313;50.308;30.374;2023-01-05T03:48:01;98900.81;;;0.26;100.00
54407;BME280;40313;50.308;30.374;2023-01-05T03:50:28;98898.28;;;0.23;100.00
54407;BME280;40313;50.308;30.374;2023-01-05T03:52:56;98866.72;;;0.21;100.00
54407;BME280;40313;50.308;30.374;2023-01-05T03:55:22;98864.16;;;0.21;100.00
54407;BME280;40313;50.308;30.374;2023-01-05T03:57:49;98866.69;;;0.22;100.00
54407;BME280;40313;50.308;30.374;2023-01-05T04:00:16;98864.13;;;0.22;100.00
54407;BME280;40313;50.308;30.374;2023-01-05T04:02:43;98856.38;;;0.24;100.00
54407;BME280;40313;50.308;30.374;2023-01-05T04:05:09;98845.38;;;0.20;100.00
54407;BME280;40313;50.308;30.374;2023-01-05T04:07:36;98843.59;;;0.22;100.00
54407;BME280;40313;50.308;30.374;2023-01-05T04:10:04;98835.91;;;0.22;100.00
54407;BME280;40313;50.308;30.374;2023-01-05T04:12:31;98828.34;;;0.17;100.00
54407;BME280;40313;50.308;30.374;2023-01-05T04:14:58;98830.94;;;0.16;100.00
54407;BME280;40313;50.308;30.374;2023-01-05T04:17:24;98816.63;;;0.09;100.00
54407;BME280;40313;50.308;30.374;2023-01-05T04:19:51;98822.56;;;0.09;100.00
54407;BME280;40313;50.308;30.374;2023-01-05T04:22:17;98801.19;;;0.10;100.00
54407;BME280;40313;50.308;30.374;2023-01-05T04:24:44;98790.06;;;0.10;100.00
54407;BME280;40313;50.308;30.374;2023-01-05T04:27:12;98785.84;;;0.09;100.00
54407;BME280;40313;50.308;30.374;2023-01-05T04:29:38;98772.97;;;0.10;100.00
54407;BME280;40313;50.308;30.374;2023-01-05T04:32:05;98762.59;;;0.15;100.00
54407;BME280;40313;50.308;30.374;2023-01-05T04:34:31;98765.94;;;0.17;100.00
54407;BME280;40313;50.308;30.374;2023-01-05T04:36:58;98761.66;;;0.17;100.00
54407;BME280;40313;50.308;30.374;2023-01-05T04:39:24;98750.50;;;0.19;100.00
54407;BME280;40313;50.308;30.374;2023-01-05T04:41:51;98747.88;;;0.22;100.00
54407;BME280;40313;50.308;30.374;2023-01-05T04:44:19;98740.16;;;0.22;100.00
54407;BME280;40313;50.308;30.374;2023-01-05T04:46:45;98725.53;;;0.25;100.00
54407;BME280;40313;50.308;30.374;2023-01-05T04:49:12;98726.34;;;0.27;100.00
54407;BME280;40313;50.308;30.374;2023-01-05T04:51:38;98731.41;;;0.29;100.00
54407;BME280;40313;50.308;30.374;2023-01-05T04:54:05;98721.16;;;0.29;100.00
54407;BME280;40313;50.308;30.374;2023-01-05T04:56:31;98705.72;;;0.30;100.00
54407;BME280;40313;50.308;30.374;2023-01-05T04:58:58;98709.91;;;0.33;100.00
54407;BME280;40313;50.308;30.374;2023-01-05T05:01:25;98712.38;;;0.36;100.00
54407;BME280;40313;50.308;30.374;2023-01-05T05:03:52;98704.59;;;0.39;100.00
54407;BME280;40313;50.308;30.374;2023-01-05T05:06:18;98701.16;;;0.40;100.00
54407;BME280;40313;50.308;30.374;2023-01-05T05:08:45;98707.91;;;0.43;100.00
54407;BME280;40313;50.308;30.374;2023-01-05T05:11:12;98684.91;;;0.40;100.00
54407;BME280;40313;50.308;30.374;2023-01-05T05:13:38;98686.50;;;0.44;100.00
54407;BME280;40313;50.308;30.374;2023-01-05T05:16:06;98683.88;;;0.45;100.00
54407;BME280;40313;50.308;30.374;2023-01-05T05:18:34;98686.41;;;0.47;100.00
54407;BME280;40313;50.308;30.374;2023-01-05T05:21:00;98670.16;;;0.46;100.00
54407;BME280;40313;50.308;30.374;2023-01-05T05:23:27;98664.94;;;0.49;100.00
54407;BME280;40313;50.308;30.374;2023-01-05T05:25:54;98662.28;;;0.52;100.00
54407;BME280;40313;50.308;30.374;2023-01-05T05:28:20;98658.78;;;0.55;100.00
54407;BME280;40313;50.308;30.374;2023-01-05T05:30:52;98652.72;;;0.58;100.00
54407;BME280;40313;50.308;30.374;2023-01-05T05:33:20;98656.91;;;0.60;100.00
54407;BME280;40313;50.308;30.374;2023-01-05T05:35:47;98647.47;;;0.61;100.00
54407;BME280;40313;50.308;30.374;2023-01-05T05:38:14;98642.25;;;0.64;100.00
54407;BME280;40313;50.308;30.374;2023-01-05T05:40:40;98645.63;;;0.66;100.00
54407;BME280;40313;50.308;30.374;2023-01-05T05:43:07;98642.13;;;0.67;100.00
54407;BME280;40313;50.308;30.374;2023-01-05T05:45:33;98628.31;;;0.71;100.00
54407;BME280;40313;50.308;30.374;2023-01-05T05:48:00;98617.19;;;0.72;100.00
54407;BME280;40313;50.308;30.374;2023-01-05T05:50:27;98605.06;;;0.76;100.00
54407;BME280;40313;50.308;30.374;2023-01-05T05:52:54;98594.78;;;0.77;100.00
54407;BME280;40313;50.308;30.374;2023-01-05T05:55:21;98588.63;;;0.81;100.00
54407;BME280;40313;50.308;30.374;2023-01-05T05:57:47;98587.63;;;0.85;100.00
54407;BME280;40313;50.308;30.374;2023-01-05T06:00:14;98572.97;;;0.89;100.00
54407;BME280;40313;50.308;30.374;2023-01-05T06:02:41;98575.44;;;0.92;100.00
54407;BME280;40313;50.308;30.374;2023-01-05T06:05:08;98576.19;;;0.96;100.00
54407;BME280;40313;50.308;30.374;2023-01-05T06:07:34;98581.25;;;0.97;100.00
54407;BME280;40313;50.308;30.374;2023-01-05T06:10:02;98571.69;;;1.01;100.00
54407;BME280;40313;50.308;30.374;2023-01-05T06:12:29;98562.25;;;1.01;100.00
54407;BME280;40313;50.308;30.374;2023-01-05T06:14:55;98562.13;;;1.06;100.00
54407;BME280;40313;50.308;30.374;2023-01-05T06:17:22;98550.16;;;1.05;100.00
54407;BME280;40313;50.308;30.374;2023-01-05T06:19:48;98551.56;;;1.14;100.00
54407;BME280;40313;50.308;30.374;2023-01-05T06:22:15;98556.53;;;1.18;100.00
54407;BME280;40313;50.308;30.374;2023-01-05T06:24:41;98556.44;;;1.22;100.00
54407;BME280;40313;50.308;30.374;2023-01-05T06:27:09;98540.06;;;1.24;100.00
54407;BME280;40313;50.308;30.374;2023-01-05T06:29:36;98547.72;;;1.26;100.00
54407;BME280;40313;50.308;30.374;2023-01-05T06:32:03;98534.78;;;1.29;100.00
54407;BME280;40313;50.308;30.374;2023-01-05T06:34:29;98533.75;;;1.33;100.00
54407;BME280;40313;50.308;30.374;2023-01-05T06:36:56;98525.16;;;1.34;100.00
54407;BME280;40313;50.308;30.374;2023-01-05T06:39:22;98532.75;;;1.37;100.00
54407;BME280;40313;50.308;30.374;2023-01-05T06:41:49;98518.13;;;1.39;100.00
54407;BME280;40313;50.308;30.374;2023-01-05T06:44:17;98526.53;;;1.43;100.00
54407;BME280;40313;50.308;30.374;2023-01-05T06:46:43;98523.97;;;1.43;100.00
54407;BME280;40313;50.308;30.374;2023-01-05T06:49:10;98538.38;;;1.47;100.00
54407;BME280;40313;50.308;30.374;2023-01-05T06:51:36;98521.47;;;1.41;100.00
54407;BME280;40313;50.308;30.374;2023-01-05T06:54:04;98509.91;;;1.53;100.00
54407;BME280;40313;50.308;30.374;2023-01-05T06:56:31;98513.25;;;1.55;100.00
54407;BME280;40313;50.308;30.374;2023-01-05T06:58:57;98513.97;;;1.59;100.00
54407;BME280;40313;50.308;30.374;2023-01-05T07:01:25;98508.81;;;1.59;100.00
54407;BME280;40313;50.308;30.374;2023-01-05T07:03:52;98500.09;;;1.63;100.00
54407;BME280;40313;50.308;30.374;2023-01-05T07:06:18;98493.94;;;1.67;100.00
54407;BME280;40313;50.308;30.374;2023-01-05T07:08:45;98476.63;;;1.72;100.00
54407;BME280;40313;50.308;30.374;2023-01-05T07:11:11;98477.31;;;1.76;100.00
54407;BME280;40313;50.308;30.374;2023-01-05T07:13:38;98475.47;;;1.79;100.00
54407;BME280;40313;50.308;30.374;2023-01-05T07:16:05;98476.19;;;1.83;100.00
54407;BME280;40313;50.308;30.374;2023-01-05T07:18:33;98476.84;;;1.88;100.00
54407;BME280;40313;50.308;30.374;2023-01-05T07:21:00;98462.97;;;1.92;100.00
54407;BME280;40313;50.308;30.374;2023-01-05T07:23:26;98464.47;;;1.98;100.00
54407;BME280;40313;50.308;30.374;2023-01-05T07:25:58;98471.22;;;2.00;100.00
54407;BME280;40313;50.308;30.374;2023-01-05T07:28:24;98453.91;;;2.04;100.00
54407;BME280;40313;50.308;30.374;2023-01-05T07:30:51;98446.00;;;2.08;100.00
54407;BME280;40313;50.308;30.374;2023-01-05T07:33:18;98454.66;;;2.07;100.00
54407;BME280;40313;50.308;30.374;2023-01-05T07:35:46;98445.03;;;2.11;100.00
54407;BME280;40313;50.308;30.374;2023-01-05T07:38:12;98436.44;;;2.12;100.00
54407;BME280;40313;50.308;30.374;2023-01-05T07:40:39;98435.47;;;2.15;100.00
54407;BME280;40313;50.308;30.374;2023-01-05T07:43:05;98438.00;;;2.16;100.00
54407;BME280;40313;50.308;30.374;2023-01-05T07:45:32;98422.34;;;2.21;100.00
54407;BME280;40313;50.308;30.374;2023-01-05T07:47:58;98411.16;;;2.22;100.00
54407;BME280;40313;50.308;30.374;2023-01-05T07:50:25;98421.25;;;2.27;100.00
54407;BME280;40313;50.308;30.374;2023-01-05T07:52:53;98423.69;;;2.30;100.00
54407;BME280;40313;50.308;30.374;2023-01-05T07:55:19;98409.81;;;2.34;100.00
54407;BME280;40313;50.308;30.374;2023-01-05T07:57:46;98423.47;;;2.36;100.00
54407;BME280;40313;50.308;30.374;2023-01-05T08:00:13;98414.00;;;2.36;100.00
54407;BME280;40313;50.308;30.374;2023-01-05T08:02:40;98412.09;;;2.40;100.00
54407;BME280;40313;50.308;30.374;2023-01-05T08:05:07;98400.91;;;2.41;100.00
54407;BME280;40313;50.308;30.374;2023-01-05T08:07:34;98406.72;;;2.46;100.00
54407;BME280;40313;50.308;30.374;2023-01-05T08:10:03;98398.59;;;2.55;100.00
54407;BME280;40313;50.308;30.374;2023-01-05T08:12:47;98398.38;;;2.60;100.00
54407;BME280;40313;50.308;30.374;2023-01-05T08:15:31;98404.03;;;2.68;100.00
54407;BME280;40313;50.308;30.374;2023-01-05T08:17:57;98388.34;;;2.74;100.00
54407;BME280;40313;50.308;30.374;2023-01-05T08:20:24;98381.16;;;2.81;100.00
54407;BME280;40313;50.308;30.374;2023-01-05T08:22:51;98390.13;;;2.91;100.00
54407;BME280;40313;50.308;30.374;2023-01-05T08:25:19;98373.69;;;2.94;100.00
54407;BME280;40313;50.308;30.374;2023-01-05T08:27:46;98376.09;;;2.99;100.00
54407;BME280;40313;50.308;30.374;2023-01-05T08:30:13;98360.47;;;3.02;100.00
54407;BME280;40313;50.308;30.374;2023-01-05T08:32:42;98363.66;;;3.07;100.00
54407;BME280;40313;50.308;30.374;2023-01-05T08:35:08;98359.16;;;3.12;100.00
54407;BME280;40313;50.308;30.374;2023-01-05T08:37:35;98363.84;;;3.21;100.00
54407;BME280;40313;50.308;30.374;2023-01-05T08:40:02;98355.16;;;3.24;100.00
54407;BME280;40313;50.308;30.374;2023-01-05T08:42:30;98345.69;;;3.24;100.00
54407;BME280;40313;50.308;30.374;2023-01-05T08:44:56;98344.50;;;3.32;100.00
54407;BME280;40313;50.308;30.374;2023-01-05T08:47:23;98339.72;;;3.41;100.00
54407;BME280;40313;50.308;30.374;2023-01-05T08:49:49;98321.16;;;3.52;100.00
54407;BME280;40313;50.308;30.374;2023-01-05T08:52:16;98322.38;;;3.62;100.00
54407;BME280;40313;50.308;30.374;2023-01-05T08:54:43;98327.00;;;3.73;100.00
54407;BME280;40313;50.308;30.374;2023-01-05T08:57:09;98312.81;;;3.82;100.00
54407;BME280;40313;50.308;30.374;2023-01-05T08:59:37;98308.25;;;3.87;100.00
54407;BME280;40313;50.308;30.374;2023-01-05T09:02:04;98301.94;;;3.93;100.00
54407;BME280;40313;50.308;30.374;2023-01-05T09:04:31;98286.25;;;3.97;100.00
54407;BME280;40313;50.308;30.374;2023-01-05T09:06:57;98285.09;;;4.03;100.00
54407;BME280;40313;50.308;30.374;2023-01-05T09:09:24;98280.44;;;4.10;100.00
54407;BME280;40313;50.308;30.374;2023-01-05T09:11:50;98270.63;;;4.17;100.00
54407;BME280;40313;50.308;30.374;2023-01-05T09:14:17;98261.06;;;4.19;100.00
54407;BME280;40313;50.308;30.374;2023-01-05T09:16:45;98259.91;;;4.24;100.00
54407;BME280;40313;50.308;30.374;2023-01-05T09:19:12;98256.25;;;4.28;100.00
54407;BME280;40313;50.308;30.374;2023-01-05T09:21:39;98252.44;;;4.36;100.00
54407;BME280;40313;50.308;30.374;2023-01-05T09:24:06;98255.78;;;4.38;100.00
54407;BME280;40313;50.308;30.374;2023-01-05T09:26:33;98246.88;;;4.43;100.00
54407;BME280;40313;50.308;30.374;2023-01-05T09:28:59;98237.97;;;4.49;100.00
54407;BME280;40313;50.308;30.374;2023-01-05T09:31:26;98231.81;;;4.52;100.00
54407;BME280;40313;50.308;30.374;2023-01-05T09:33:55;98222.03;;;4.57;100.00
54407;BME280;40313;50.308;30.374;2023-01-05T09:36:21;98221.22;;;4.56;100.00
54407;BME280;40313;50.308;30.374;2023-01-05T09:38:48;98223.03;;;4.54;100.00
54407;BME280;40313;50.308;30.374;2023-01-05T09:41:19;98225.38;;;4.59;100.00
54407;BME280;40313;50.308;30.374;2023-01-05T09:43:49;98226.94;;;4.61;100.00
54407;BME280;40313;50.308;30.374;2023-01-05T09:46:20;98221.94;;;4.58;100.00
54407;BME280;40313;50.308;30.374;2023-01-05T09:48:51;98219.72;;;4.52;100.00
54407;BME280;40313;50.308;30.374;2023-01-05T09:51:19;98214.38;;;4.55;100.00
54407;BME280;40313;50.308;30.374;2023-01-05T09:53:46;98213.47;;;4.56;100.00
54407;BME280;40313;50.308;30.374;2023-01-05T09:56:20;98199.69;;;4.56;100.00
54407;BME280;40313;50.308;30.374;2023-01-05T09:58:50;98211.06;;;4.53;100.00
54407;BME280;40313;50.308;30.374;2023-01-05T10:01:19;98202.47;;;4.53;100.00
54407;BME280;40313;50.308;30.374;2023-01-05T10:03:54;98201.63;;;4.52;100.00
54407;BME280;40313;50.308;30.374;2023-01-05T10:06:26;98191.47;;;4.49;100.00
54407;BME280;40313;50.308;30.374;2023-01-05T10:08:53;98194.06;;;4.49;100.00
54407;BME280;40313;50.308;30.374;2023-01-05T10:11:26;98193.38;;;4.45;100.00
54407;BME280;40313;50.308;30.374;2023-01-05T10:14:16;98191.66;;;4.46;100.00
54407;BME280;40313;50.308;30.374;2023-01-05T10:16:45;98199.41;;;4.46;100.00
54407;BME280;40313;50.308;30.374;2023-01-05T10:19:13;98187.97;;;4.50;100.00
54407;BME280;40313;50.308;30.374;2023-01-05T10:21:51;98179.47;;;4.48;100.00
54407;BME280;40313;50.308;30.374;2023-01-05T10:24:27;98178.78;;;4.44;100.00
54407;BME280;40313;50.308;30.374;2023-01-05T10:26:58;98171.81;;;4.46;100.00
54407;BME280;40313;50.308;30.374;2023-01-05T10:29:31;98172.56;;;4.48;100.00
54407;BME280;40313;50.308;30.374;2023-01-05T10:32:07;98168.97;;;4.51;100.00
54407;BME280;40313;50.308;30.374;2023-01-05T10:34:48;98162.72;;;4.55;100.00
54407;BME280;40313;50.308;30.374;2023-01-05T10:37:32;98160.13;;;4.55;100.00
54407;BME280;40313;50.308;30.374;2023-01-05T10:40:12;98162.00;;;4.53;100.00
54407;BME280;40313;50.308;30.374;2023-01-05T10:42:48;98155.66;;;4.59;100.00
54407;BME280;40313;50.308;30.374;2023-01-05T10:45:20;98151.94;;;4.63;100.00
54407;BME280;40313;50.308;30.374;2023-01-05T10:47:47;98136.22;;;4.67;100.00
54407;BME280;40313;50.308;30.374;2023-01-05T10:50:29;98133.47;;;4.71;100.00
54407;BME280;40313;50.308;30.374;2023-01-05T10:53:04;98134.97;;;4.75;100.00
54407;BME280;40313;50.308;30.374;2023-01-05T10:55:40;98139.03;;;4.79;100.00
54407;BME280;40313;50.308;30.374;2023-01-05T10:58:19;98138.00;;;4.81;100.00
54407;BME280;40313;50.308;30.374;2023-01-05T11:00:46;98133.41;;;4.87;100.00
54407;BME280;40313;50.308;30.374;2023-01-05T11:03:15;98136.72;;;4.89;100.00
54407;BME280;40313;50.308;30.374;2023-01-05T11:05:43;98131.22;;;4.95;100.00
54407;BME280;40313;50.308;30.374;2023-01-05T11:08:17;98132.91;;;4.96;100.00
54407;BME280;40313;50.308;30.374;2023-01-05T11:10:49;98120.63;;;4.99;100.00
54407;BME280;40313;50.308;30.374;2023-01-05T11:13:18;98118.75;;;5.01;100.00
54407;BME280;40313;50.308;30.374;2023-01-05T11:15:52;98115.84;;;5.08;100.00
54407;BME280;40313;50.308;30.374;2023-01-05T11:18:25;98111.13;;;5.14;100.00
54407;BME280;40313;50.308;30.374;2023-01-05T11:21:12;98095.28;;;5.21;100.00
54407;BME280;40313;50.308;30.374;2023-01-05T11:23:42;98091.59;;;5.25;100.00
54407;BME280;40313;50.308;30.374;2023-01-05T11:26:31;98090.50;;;5.29;100.00
54407;BME280;40313;50.308;30.374;2023-01-05T11:31:48;98095.56;;;5.30;100.00
54407;BME280;40313;50.308;30.374;2023-01-05T11:34:23;98093.72;;;5.32;100.00
54407;BME280;40313;50.308;30.374;2023-01-05T11:36:53;98090.22;;;5.33;100.00
54407;BME280;40313;50.308;30.374;2023-01-05T11:39:26;98085.75;;;5.35;100.00
54407;BME280;40313;50.308;30.374;2023-01-05T11:42:14;98090.84;;;5.37;100.00
54407;BME280;40313;50.308;30.374;2023-01-05T11:44:43;98087.44;;;5.36;100.00
54407;BME280;40313;50.308;30.374;2023-01-05T11:47:19;98088.16;;;5.39;100.00
54407;BME280;40313;50.308;30.374;2023-01-05T11:49:47;98088.91;;;5.41;100.00
54407;BME280;40313;50.308;30.374;2023-01-05T11:52:26;98087.06;;;5.43;100.00
54407;BME280;40313;50.308;30.374;2023-01-05T11:54:54;98079.09;;;5.46;100.00
54407;BME280;40313;50.308;30.374;2023-01-05T11:57:21;98070.25;;;5.50;100.00
54407;BME280;40313;50.308;30.374;2023-01-05T11:59:49;98075.25;;;5.53;100.00
54407;BME280;40313;50.308;30.374;2023-01-05T12:02:39;98076.16;;;5.52;100.00
54407;BME280;40313;50.308;30.374;2023-01-05T12:05:20;98071.09;;;5.50;100.00
54407;BME280;40313;50.308;30.374;2023-01-05T12:07:51;98070.25;;;5.50;100.00
54407;BME280;40313;50.308;30.374;2023-01-05T16:29:50;98094.88;;;4.98;100.00
54407;BME280;40313;50.308;30.374;2023-01-05T16:32:32;98093.19;;;4.97;100.00
54407;BME280;40313;50.308;30.374;2023-01-05T16:35:28;98090.63;;;4.97;100.00
54407;BME280;40313;50.308;30.374;2023-01-05T16:38:02;98093.00;;;5.00;100.00
54407;BME280;40313;50.308;30.374;2023-01-05T16:40:28;98093.00;;;5.00;100.00
54407;BME280;40313;50.308;30.374;2023-01-05T16:42:55;98100.69;;;5.01;100.00
54407;BME280;40313;50.308;30.374;2023-01-05T16:45:24;98098.84;;;5.04;100.00
54407;BME280;40313;50.308;30.374;2023-01-05T16:47:51;98097.84;;;5.06;100.00
54407;BME280;40313;50.308;30.374;2023-01-05T16:53:24;98100.44;;;5.06;100.00
54407;BME280;40313;50.308;30.374;2023-01-05T16:55:51;98097.84;;;5.06;100.00
54407;BME280;40313;50.308;30.374;2023-01-05T16:58:36;98105.31;;;5.11;100.00
54407;BME280;40313;50.308;30.374;2023-01-05T17:01:20;98095.81;;;5.11;100.00
54407;BME280;40313;50.308;30.374;2023-01-05T17:03:47;98101.81;;;5.12;100.00
54407;BME280;40313;50.308;30.374;2023-01-05T17:06:17;98101.72;;;5.13;100.00
54407;BME280;40313;50.308;30.374;2023-01-05T17:08:45;98096.66;;;5.12;100.00
54407;BME280;40313;50.308;30.374;2023-01-05T17:11:11;98107.72;;;5.14;100.00
54407;BME280;40313;50.308;30.374;2023-01-05T17:13:39;98108.47;;;5.16;100.00
54407;BME280;40313;50.308;30.374;2023-01-05T17:16:08;98106.63;;;5.18;100.00
54407;BME280;40313;50.308;30.374;2023-01-05T17:18:37;98104.94;;;5.17;100.00
54407;BME280;40313;50.308;30.374;2023-01-05T17:21:04;98110.13;;;5.17;100.00
54407;BME280;40313;50.308;30.374;2023-01-05T17:23:32;98104.94;;;5.17;100.00
54407;BME280;40313;50.308;30.374;2023-01-05T17:25:59;98108.38;;;5.17;100.00
54407;BME280;40313;50.308;30.374;2023-01-05T17:28:27;98104.94;;;5.17;100.00
54407;BME280;40313;50.308;30.374;2023-01-05T17:30:53;98107.44;;;5.18;100.00